Time;durP1;ratioP1;P1;durP2;ratioP2;P2;SDS_P1;SDS_P2;PMS_P1;PMS_P2;Temp;Humidity;BMP_temperature;BMP_pressure;BME280_temperature;BME280_humidity;BME280_pressure;Samples;Min_cycle;Max_cycle;Signal;HPM_P1;HPM_P2
2022/06/25 00:01:51;;;;;;;9.18;5.20;;;;;;;14.21;100.00;99967.91;1681101;85;21118;-69
2022/06/25 00:07:03;;;;;;;6.40;4.90;;;;;;;14.17;100.00;99969.89;1687465;82;21042;-67
2022/06/25 00:09:29;;;;;;;9.58;5.83;;;;;;;14.18;100.00;99966.77;1689271;85;21043;-66
2022/06/25 00:14:41;;;;;;;7.10;5.08;;;;;;;14.17;100.00;99966.36;1689277;85;21205;-67
2022/06/25 00:17:07;;;;;;;8.00;5.50;;;;;;;14.15;100.00;99965.59;1688864;85;20982;-66
2022/06/25 00:19:34;;;;;;;8.73;4.92;;;;;;;14.14;100.00;99966.55;1689267;83;21073;-66
2022/06/25 00:22:03;;;;;;;9.20;5.47;;;;;;;14.12;100.00;99969.73;1667216;81;21469;-68
2022/06/25 00:24:29;;;;;;;7.35;5.10;;;;;;;14.13;100.00;99970.14;1687761;85;21494;-70
2022/06/25 00:26:56;;;;;;;7.00;4.83;;;;;;;14.12;100.00;99969.27;1687826;84;21045;-71
2022/06/25 00:29:23;;;;;;;10.10;4.83;;;;;;;14.13;100.00;99968.82;1688035;84;20998;-69
2022/06/25 00:31:49;;;;;;;6.22;5.10;;;;;;;14.13;100.00;99966.17;1687949;84;21010;-69
2022/06/25 00:34:16;;;;;;;6.80;4.95;;;;;;;14.14;100.00;99969.19;1706004;83;21030;-70
2022/06/25 00:36:42;;;;;;;10.63;5.90;;;;;;;14.13;100.00;99964.84;1739177;79;20978;-69
2022/06/25 00:39:11;;;;;;;8.38;4.80;;;;;;;14.12;100.00;99968.41;1755664;81;22198;-70
2022/06/25 00:41:38;;;;;;;7.65;4.37;;;;;;;14.10;100.00;99962.34;1756031;81;21471;-70
2022/06/25 00:44:09;;;;;;;6.25;4.40;;;;;;;14.10;100.00;99962.34;1756323;81;20975;-69
2022/06/25 00:46:36;;;;;;;;;;;;;;;14.09;100.00;99965.95;1758712;81;21023;-69
2022/06/25 00:49:03;;;;;;;7.65;4.90;;;;;;;14.09;100.00;99963.30;1756276;81;20469;-70
2022/06/25 00:51:32;;;;;;;9.88;4.92;;;;;;;14.06;100.00;99965.17;1737480;81;21060;-70
2022/06/25 00:54:04;;;;;;;7.22;5.08;;;;;;;14.08;100.00;99965.55;1716758;83;20998;-69
2022/06/25 00:56:39;;;;;;;7.90;5.00;;;;;;;14.08;100.00;99962.89;1716140;83;21518;-70
2022/06/25 00:59:06;;;;;;;9.28;4.78;;;;;;;14.09;100.00;99969.91;1686260;83;21022;-70
2022/06/25 01:01:34;;;;;;;9.28;4.90;;;;;;;14.10;100.00;99972.94;1716115;83;21058;-69
2022/06/25 01:04:01;;;;;;;7.12;4.50;;;;;;;14.11;100.00;99979.95;1716291;83;21081;-69
2022/06/25 01:06:31;;;;;;;6.03;4.40;;;;;;;14.11;100.00;99979.95;1718236;80;21489;-70
2022/06/25 01:08:58;;;;;;;11.97;4.97;;;;;;;14.08;100.00;99980.10;1722197;83;20979;-70
2022/06/25 01:11:25;;;;;;;9.05;4.90;;;;;;;14.07;100.00;99979.26;1722193;83;20964;-69
2022/06/25 01:13:53;;;;;;;11.57;4.90;;;;;;;14.05;100.00;99980.66;1722273;83;20972;-69
2022/06/25 01:16:21;;;;;;;5.85;4.55;;;;;;;14.03;100.00;99975.05;1721960;83;21227;-69
2022/06/25 01:18:49;;;;;;;9.08;5.10;;;;;;;14.01;100.00;99977.80;1721969;82;21019;-71
2022/06/25 01:21:16;;;;;;;8.60;5.17;;;;;;;14.02;100.00;99976.01;1731716;80;20941;-69
2022/06/25 01:23:43;;;;;;;5.15;4.28;;;;;;;14.02;100.00;99974.20;1757853;81;21551;-70
2022/06/25 01:26:09;;;;;;;12.78;4.95;;;;;;;14.03;100.00;99978.58;1758217;81;20996;-70
2022/06/25 01:28:36;;;;;;;7.83;4.83;;;;;;;14.04;100.00;99976.31;1757778;81;21737;-69
2022/06/25 01:31:03;;;;;;;10.43;4.95;;;;;;;14.06;100.00;99978.88;1757919;81;21515;-72
2022/06/25 01:33:30;;;;;;;8.08;4.33;;;;;;;14.06;100.00;99975.77;1757761;80;21502;-69
2022/06/25 01:35:57;;;;;;;5.72;4.72;;;;;;;14.08;100.00;99974.80;1761265;80;21144;-70
2022/06/25 01:38:26;;;;;;;7.87;4.45;;;;;;;14.10;100.00;99980.88;1788935;80;21645;-70
2022/06/25 01:40:53;;;;;;;8.33;4.67;;;;;;;14.14;100.00;99977.14;1789519;80;21202;-69
2022/06/25 01:43:20;;;;;;;6.28;4.28;;;;;;;14.21;100.00;99976.70;1788904;80;20943;-69
2022/06/25 01:45:47;;;;;;;6.22;4.37;;;;;;;14.29;100.00;99981.61;1789210;80;20970;-70
2022/06/25 01:48:14;;;;;;;9.55;4.40;;;;;;;14.36;100.00;99981.66;1788939;80;21029;-70
2022/06/25 01:50:41;;;;;;;7.15;4.10;;;;;;;14.42;100.00;99986.63;1787604;79;21037;-72
2022/06/25 01:53:08;;;;;;;9.33;4.25;;;;;;;14.48;100.00;99985.41;1665688;86;21168;-69
2022/06/25 01:55:34;;;;;;;8.90;4.42;;;;;;;14.53;100.00;99993.11;1666010;86;21040;-69
2022/06/25 01:58:02;;;;;;;7.70;4.30;;;;;;;14.54;100.00;99989.09;1665750;86;21014;-69
2022/06/25 02:00:30;;;;;;;12.70;4.25;;;;;;;14.57;99.73;99984.94;1666070;86;21017;-68
2022/06/25 02:03:01;;;;;;;5.97;4.50;;;;;;;14.63;99.45;99982.40;1665983;86;21010;-70
2022/06/25 02:08:17;;;;;;;5.72;4.62;;;;;;;14.73;98.95;99986.25;1769177;81;21476;-70
2022/06/25 02:10:48;;;;;;;8.53;4.55;;;;;;;14.75;98.44;99985.70;1769410;81;21464;-68
2022/06/25 02:13:15;;;;;;;8.53;4.17;;;;;;;14.75;98.29;99988.36;1769188;81;20972;-69
2022/06/25 02:15:43;;;;;;;7.28;4.17;;;;;;;14.78;98.14;99993.47;1769503;81;20940;-69
2022/06/25 02:18:14;;;;;;;8.40;4.55;;;;;;;14.78;97.69;99990.82;1769169;79;21185;-69
2022/06/25 02:20:58;;;;;;;9.15;3.95;;;;;;;14.81;97.28;99995.09;1768079;80;21037;-69
2022/06/25 02:23:25;;;;;;;5.67;4.15;;;;;;;14.82;97.11;99993.69;1641840;87;21027;-67
2022/06/25 02:25:52;;;;;;;7.62;4.22;;;;;;;14.85;96.87;99992.18;1698468;84;21589;-66
2022/06/25 02:28:19;;;;;;;7.08;4.42;;;;;;;14.88;96.79;99997.33;1698295;84;21028;-66
2022/06/25 02:30:46;;;;;;;5.12;4.12;;;;;;;14.92;96.59;99998.47;1698608;84;21778;-66
2022/06/25 02:33:14;;;;;;;10.18;3.98;;;;;;;14.96;96.37;99994.70;1697275;84;20991;-67
2022/06/25 02:36:00;;;;;;;7.20;4.10;;;;;;;14.98;96.13;99999.45;1697512;84;21090;-66
2022/06/25 02:38:27;;;;;;;7.25;4.00;;;;;;;15.04;95.90;99994.63;1666550;84;21060;-69
2022/06/25 02:40:56;;;;;;;7.90;4.12;;;;;;;15.12;95.83;99999.50;1698422;84;20941;-69
2022/06/25 02:43:24;;;;;;;8.33;4.10;;;;;;;15.19;95.35;99996.88;1698218;82;21125;-70
2022/06/25 02:45:53;;;;;;;4.20;3.52;;;;;;;15.29;94.90;100003.34;1696907;84;21000;-70
2022/06/25 02:48:19;;;;;;;8.10;4.20;;;;;;;15.38;94.51;100006.41;1698098;84;20993;-69
2022/06/25 02:51:06;;;;;;;5.08;3.45;;;;;;;15.47;93.97;100001.41;1698596;84;21500;-69
2022/06/25 02:53:34;;;;;;;9.78;4.20;;;;;;;15.58;93.36;100000.78;1753035;81;21438;-69
2022/06/25 02:58:55;;;;;;;7.53;4.08;;;;;;;15.86;91.94;100004.45;1753044;81;20970;-70
2022/06/25 03:01:30;;;;;;;6.15;3.83;;;;;;;16.00;90.92;100002.28;1753065;80;20974;-70
2022/06/25 03:03:57;;;;;;;7.62;4.10;;;;;;;16.17;89.88;100003.88;1752899;81;20995;-70
2022/06/25 03:06:24;;;;;;;10.98;3.83;;;;;;;16.31;89.01;99997.22;1737386;81;21036;-69
2022/06/25 03:08:51;;;;;;;6.47;4.20;;;;;;;16.46;87.58;99996.27;1668338;86;21109;-68
2022/06/25 03:11:18;;;;;;;6.97;4.20;;;;;;;16.61;86.85;99997.55;1668563;86;20978;-69
2022/06/25 03:13:45;;;;;;;7.95;4.00;;;;;;;16.78;85.18;99996.00;1668427;86;20989;-70
2022/06/25 03:16:12;;;;;;;6.58;3.65;;;;;;;16.96;84.32;99999.31;1659025;86;21400;-69
2022/06/25 03:18:40;;;;;;;6.72;3.62;;;;;;;17.11;83.18;100000.09;1664565;84;21024;-70
2022/06/25 03:21:14;;;;;;;7.75;3.80;;;;;;;17.26;82.21;100001.74;1672529;81;21742;-66
2022/06/25 03:23:41;;;;;;;7.97;4.35;;;;;;;17.42;81.66;100004.23;1721894;83;20987;-67
2022/06/25 03:26:08;;;;;;;10.10;4.10;;;;;;;17.57;80.62;100007.65;1719890;82;21528;-67
2022/06/25 03:28:36;;;;;;;6.85;3.95;;;;;;;17.71;79.68;100010.22;1719930;83;21019;-66
2022/06/25 03:31:03;;;;;;;7.47;3.55;;;;;;;17.88;78.69;100013.10;1719772;82;21075;-66
2022/06/25 03:33:30;;;;;;;8.53;3.70;;;;;;;18.02;77.85;100004.14;1720014;83;21766;-67
2022/06/25 03:36:08;;;;;;;8.13;3.85;;;;;;;18.17;77.07;100008.86;1717453;81;21070;31
2022/06/25 03:38:37;;;;;;;9.58;3.72;;;;;;;18.29;75.75;99999.14;1687753;85;21546;-69
2022/06/25 03:43:50;;;;;;;7.78;3.92;;;;;;;18.61;73.88;100001.70;1663205;85;21435;-69
2022/06/25 03:46:17;;;;;;;10.65;4.17;;;;;;;18.78;73.41;100006.32;1687772;85;21108;-69
2022/06/25 03:48:46;;;;;;;5.62;3.98;;;;;;;18.91;72.48;100007.13;1688053;84;21571;-67
2022/06/25 03:51:34;;;;;;;6.33;3.60;;;;;;;19.05;72.12;100001.61;1685471;81;23995;-67
2022/06/25 03:54:01;;;;;;;7.67;3.62;;;;;;;19.25;71.05;100008.59;1696292;84;21500;-68
2022/06/25 03:56:28;;;;;;;8.05;3.50;;;;;;;19.45;70.35;100012.45;1702200;84;21111;-67
2022/06/25 03:58:55;;;;;;;8.10;3.67;;;;;;;19.63;68.95;100015.05;1702379;84;21078;-67
2022/06/25 04:01:23;;;;;;;6.95;3.30;;;;;;;19.82;68.01;100021.67;1702105;84;21027;-69
2022/06/25 04:03:51;;;;;;;5.58;3.40;;;;;;;20.01;66.12;100027.77;1702380;82;21027;-68
2022/06/25 04:06:18;;;;;;;5.33;3.67;;;;;;;20.16;64.87;100029.26;1697568;82;21079;-69
2022/06/25 04:08:47;;;;;;;7.78;3.72;;;;;;;20.31;64.21;100032.06;1646465;87;21038;-70
2022/06/25 04:11:15;;;;;;;10.93;3.60;;;;;;;20.51;63.25;100029.61;1646541;87;21571;-69
2022/06/25 04:13:44;;;;;;;5.87;3.77;;;;;;;20.69;62.78;100032.67;1646317;87;21559;-68
2022/06/25 04:16:13;;;;;;;4.95;3.55;;;;;;;20.88;62.41;100023.98;1646268;87;20999;-69
2022/06/25 04:18:41;;;;;;;8.23;3.52;;;;;;;21.08;60.14;100025.04;1646359;85;21049;-69
2022/06/25 04:21:32;;;;;;;5.08;3.37;;;;;;;21.23;59.13;100025.58;1646385;87;21459;-68
2022/06/25 04:24:45;;;;;;;6.20;3.85;;;;;;;21.47;59.46;100027.58;1796058;79;22579;-69
2022/06/25 04:29:03;;;;;;;4.67;3.22;;;;;;;21.61;59.27;100025.08;1736832;81;21002;-69
2022/06/25 04:29:41;;;;;;;9.03;3.27;;;;;;;21.81;58.03;100033.23;1753179;81;21229;-69
2022/06/25 04:32:13;;;;;;;5.67;3.30;;;;;;;21.98;57.76;100029.47;1746252;82;21092;-70
2022/06/25 04:34:56;;;;;;;6.42;3.00;;;;;;;22.19;56.90;100029.93;1745862;82;21006;-68
2022/06/25 04:37:23;;;;;;;8.73;3.65;;;;;;;22.38;55.84;100032.75;1707236;79;21594;-69
2022/06/25 04:39:49;;;;;;;4.67;3.02;;;;;;;22.53;55.45;100033.71;1655754;86;21598;-70
2022/06/25 04:42:16;;;;;;;5.10;3.17;;;;;;;22.68;55.22;100032.33;1655928;86;21133;-70
2022/06/25 04:44:43;;;;;;;5.83;3.25;;;;;;;22.89;54.04;100042.12;1655755;86;21588;-70
2022/06/25 04:47:10;;;;;;;9.33;3.35;;;;;;;23.08;52.39;100046.24;1655859;85;21052;-70
2022/06/25 04:49:39;;;;;;;4.67;2.80;;;;;;;23.13;52.55;100050.69;1655431;86;21202;-70
2022/06/25 04:52:08;;;;;;;5.80;3.15;;;;;;;23.25;52.62;100056.28;1679443;80;21313;-70
2022/06/25 04:54:35;;;;;;;5.20;3.00;;;;;;;23.39;52.58;100051.48;1742932;82;22123;-69
2022/06/25 04:57:11;;;;;;;4.00;3.20;;;;;;;23.62;51.75;100060.11;1742786;82;21059;-69
2022/06/25 04:59:40;;;;;;;19.05;3.65;;;;;;;23.80;51.36;100071.02;1741499;82;21021;-70
2022/06/25 05:02:08;;;;;;;5.67;3.35;;;;;;;23.95;50.31;100080.35;1742552;82;21075;-69
2022/06/25 05:04:37;;;;;;;5.47;3.30;;;;;;;24.04;50.31;100077.27;1742419;82;21059;-69
2022/06/25 05:07:05;;;;;;;5.15;3.50;;;;;;;24.18;49.57;100070.58;1737475;79;22204;-70
2022/06/25 05:09:32;;;;;;;10.65;3.55;;;;;;;24.25;49.19;100067.17;1705511;84;21048;-71
2022/06/25 05:12:00;;;;;;;5.72;3.27;;;;;;;24.32;49.16;100068.79;1726420;83;21044;-70
2022/06/25 05:14:26;;;;;;;6.00;3.22;;;;;;;24.41;49.07;100069.25;1705681;84;21040;-70
2022/06/25 05:16:55;;;;;;;6.00;3.20;;;;;;;24.48;48.93;100069.04;1723695;81;21084;-70
2022/06/25 05:19:26;;;;;;;8.55;3.58;;;;;;;24.56;49.15;100064.75;1702996;84;21600;-70
2022/06/25 05:21:53;;;;;;;5.35;3.27;;;;;;;24.64;48.92;100063.49;1701586;81;21527;-71
2022/06/25 05:24:19;;;;;;;5.45;3.22;;;;;;;24.78;49.38;100060.33;1690526;84;21112;-69
2022/06/25 05:26:46;;;;;;;9.03;3.90;;;;;;;24.96;48.56;100064.41;1690895;84;21070;-71
2022/06/25 05:29:14;;;;;;;5.00;3.27;;;;;;;25.02;48.20;100069.17;1690651;83;21106;-70
2022/06/25 05:31:40;;;;;;;5.50;3.30;;;;;;;25.14;47.17;100067.11;1690583;84;21241;-71
2022/06/25 05:34:07;;;;;;;5.47;3.25;;;;;;;25.25;46.82;100064.22;1690362;84;21045;-69
2022/06/25 05:36:54;;;;;;;6.30;2.92;;;;;;;25.30;46.64;100067.30;1690140;84;21121;-70
2022/06/25 05:39:21;;;;;;;3.50;2.80;;;;;;;25.43;47.66;100068.78;1752539;81;21064;-66
2022/06/25 05:41:48;;;;;;;6.67;2.95;;;;;;;25.65;46.98;100068.31;1753072;81;21501;-67
2022/06/25 05:44:15;;;;;;;4.22;2.90;;;;;;;25.93;46.14;100070.92;1752623;81;21129;-68
2022/06/25 05:46:42;;;;;;;4.67;3.45;;;;;;;26.16;45.51;100076.14;1752628;81;21006;-67
2022/06/25 05:49:08;;;;;;;4.12;2.83;;;;;;;26.32;44.93;100075.91;1752612;81;21056;-67
2022/06/25 05:51:44;;;;;;;5.40;3.30;;;;;;;26.49;44.49;100072.27;1752693;81;21112;-67
2022/06/25 05:54:11;;;;;;;4.83;3.08;;;;;;;26.70;43.24;100076.45;1773382;80;21095;-70
2022/06/25 05:56:37;;;;;;;3.52;2.70;;;;;;;26.71;42.78;100074.07;1718441;83;21133;-71
2022/06/25 05:59:05;;;;;;;9.48;2.92;;;;;;;26.76;42.11;100075.80;1748171;81;21087;-69
2022/06/25 06:01:32;;;;;;;4.83;2.70;;;;;;;26.75;42.14;100079.50;1728501;83;21095;-69
2022/06/25 06:03:58;;;;;;;6.03;2.90;;;;;;;26.78;42.38;100072.44;1728550;83;21054;-71
2022/06/25 06:06:25;;;;;;;8.43;3.10;;;;;;;26.81;42.38;100076.16;1728394;83;21080;-70
2022/06/25 06:08:52;;;;;;;7.72;3.02;;;;;;;26.91;42.20;100079.55;1752998;80;21117;-69
2022/06/25 06:11:20;;;;;;;5.08;2.75;;;;;;;26.98;42.11;100077.05;1757604;81;21617;-73
2022/06/25 06:13:47;;;;;;;7.67;3.08;;;;;;;27.08;42.28;100063.38;1758033;81;21082;-71
2022/06/25 06:16:14;;;;;;;7.80;3.60;;;;;;;27.35;41.88;100078.51;1757401;80;21063;-72
2022/06/25 06:18:40;;;;;;;9.05;3.12;;;;;;;27.53;42.41;100083.78;1757451;81;21099;-69
2022/06/25 06:21:07;;;;;;;4.83;3.20;;;;;;;27.63;42.62;100077.72;1757744;81;21561;-71
2022/06/25 06:23:35;;;;;;;4.92;2.77;;;;;;;27.90;40.71;100077.88;1700836;79;21183;-71
2022/06/25 06:26:01;;;;;;;3.37;2.80;;;;;;;28.00;40.17;100077.73;1683449;85;22320;-72
2022/06/25 06:28:28;;;;;;;4.95;2.70;;;;;;;27.95;39.32;100074.66;1683441;83;21517;-69
2022/06/25 06:30:55;;;;;;;5.37;2.60;;;;;;;27.91;40.12;100077.41;1683468;85;21077;-70
2022/06/25 06:33:22;;;;;;;5.03;3.08;;;;;;;27.97;39.86;100077.53;1683289;85;21224;-70
2022/06/25 06:35:49;;;;;;;4.75;2.80;;;;;;;28.14;39.71;100075.67;1683421;85;21103;-70
2022/06/25 06:38:15;;;;;;;12.60;2.90;;;;;;;28.29;39.27;100078.50;1727462;79;21027;-71
2022/06/25 06:40:42;;;;;;;4.15;2.80;;;;;;;28.36;39.76;100074.59;1768393;81;21059;-70
2022/06/25 06:43:09;;;;;;;8.65;3.22;;;;;;;28.55;39.66;100083.72;1737984;81;21082;-71
2022/06/25 06:45:35;;;;;;;7.47;2.80;;;;;;;28.83;38.72;100090.05;1768284;81;21088;-70
2022/06/25 06:48:03;;;;;;;3.75;2.90;;;;;;;29.10;38.08;100078.41;1767966;81;21031;-71
2022/06/25 06:50:29;;;;;;;3.98;2.52;;;;;;;29.23;37.32;100082.73;1768643;81;21042;-70
2022/06/25 06:52:56;;;;;;;4.65;2.65;;;;;;;29.20;38.19;100080.39;1750204;79;21625;-70
2022/06/25 06:55:23;;;;;;;6.28;2.62;;;;;;;29.48;37.80;100071.20;1725636;83;21064;-70
2022/06/25 06:57:49;;;;;;;4.67;2.50;;;;;;;29.82;35.67;100070.79;1725473;83;22041;-70
2022/06/25 07:00:19;;;;;;;5.42;2.40;;;;;;;29.87;35.28;100072.44;1712636;83;21066;-71
2022/06/25 07:02:46;;;;;;;5.77;2.57;;;;;;;29.72;35.98;100076.13;1725895;83;21061;-70
2022/06/25 07:05:12;;;;;;;4.37;2.20;;;;;;;29.77;35.41;100070.50;1725278;83;21040;-70
2022/06/25 07:07:39;;;;;;;3.72;2.02;;;;;;;30.01;35.27;100065.87;1740915;78;21418;-70
2022/06/25 07:10:07;;;;;;;4.00;2.12;;;;;;;30.29;34.86;100085.13;1787748;80;21108;-71
2022/06/25 07:12:34;;;;;;;3.30;2.22;;;;;;;30.26;33.59;100078.19;1787957;80;21017;-70
2022/06/25 07:15:01;;;;;;;5.25;2.22;;;;;;;30.12;34.24;100074.92;1787641;80;21072;-70
2022/06/25 07:17:29;;;;;;;6.22;2.40;;;;;;;30.23;33.89;100079.91;1787649;80;21581;-71
2022/06/25 07:19:56;;;;;;;4.22;2.62;;;;;;;30.45;32.51;100085.46;1787587;80;21041;-71
2022/06/25 07:22:22;;;;;;;2.87;2.20;;;;;;;30.51;32.84;100092.88;1769255;76;21065;-71
2022/06/25 07:24:51;;;;;;;3.35;1.92;;;;;;;30.37;32.91;100086.89;1599533;89;21116;-72
2022/06/25 07:27:18;;;;;;;4.15;2.00;;;;;;;30.36;32.61;100083.34;1599707;89;21113;-72
2022/06/25 07:29:47;;;;;;;3.87;2.27;;;;;;;30.36;32.61;100083.34;1588960;88;21077;-71
2022/06/25 07:32:13;;;;;;;6.25;2.20;;;;;;;30.31;32.60;100078.99;1588981;90;21137;-70
2022/06/25 07:34:40;;;;;;;7.80;2.50;;;;;;;30.37;33.22;100077.39;1591635;88;21081;-70
2022/06/25 07:37:13;;;;;;;4.85;2.70;;;;;;;30.43;32.59;100090.23;1591104;87;21676;-79
2022/06/25 07:39:40;;;;;;;4.35;2.50;;;;;;;30.39;32.61;100090.27;1669548;85;21154;-71
2022/06/25 07:42:09;;;;;;;6.80;2.47;;;;;;;30.42;32.23;100077.70;1669527;86;21094;-71
2022/06/25 07:44:37;;;;;;;6.05;2.52;;;;;;;30.53;32.23;100090.81;1654874;86;21631;-71
2022/06/25 07:47:04;;;;;;;3.42;2.20;;;;;;;30.57;31.95;100075.80;1654919;86;22307;-71
2022/06/25 07:51:56;;;;;;;4.53;2.08;;;;;;;30.62;31.47;100083.38;1669211;85;21105;-71
2022/06/25 07:52:10;;;;;;;2.52;2.17;;;;;;;30.80;31.30;100075.67;1706298;83;21063;-73
2022/06/25 07:54:38;;;;;;;2.10;1.90;;;;;;;31.02;30.60;100073.89;1697565;84;21601;-69
2022/06/25 07:57:05;;;;;;;4.45;2.25;;;;;;;31.03;30.93;100089.16;1697389;84;21043;-71
2022/06/25 07:59:31;;;;;;;3.35;2.02;;;;;;;30.85;30.55;100083.30;1697292;84;21539;-71
2022/06/25 08:01:58;;;;;;;4.72;1.95;;;;;;;30.83;30.42;100083.97;1697372;84;21059;-69
2022/06/25 08:04:27;;;;;;;4.05;2.10;;;;;;;30.85;30.88;100084.66;1697366;84;21108;-70
2022/06/25 08:06:56;;;;;;;6.45;2.02;;;;;;;30.81;31.21;100088.78;1697655;84;21123;-73
2022/06/25 08:09:25;;;;;;;2.80;2.08;;;;;;;31.00;30.43;100091.44;1709875;83;21111;-71
2022/06/25 08:11:53;;;;;;;3.40;2.00;;;;;;;31.14;30.23;100091.91;1712994;83;21406;-71
2022/06/25 08:14:20;;;;;;;6.70;1.90;;;;;;;31.22;29.11;100089.59;1713197;83;21120;-72
2022/06/25 08:16:47;;;;;;;3.92;2.10;;;;;;;31.25;29.37;100081.06;1714240;83;21085;-69
2022/06/25 08:19:14;;;;;;;3.47;2.27;;;;;;;31.05;29.95;100078.94;1714329;83;21037;-72
2022/06/25 08:21:42;;;;;;;2.65;1.87;;;;;;;30.79;29.79;100086.77;1714150;83;21068;-70
2022/06/25 08:24:08;;;;;;;7.37;2.05;;;;;;;30.56;30.51;100081.44;1714390;83;21876;-69
2022/06/25 08:26:35;;;;;;;4.55;2.00;;;;;;;30.24;30.96;100081.58;1714180;83;21047;-71
2022/06/25 08:29:02;;;;;;;5.40;2.20;;;;;;;30.28;30.95;100072.06;1713946;83;21073;-70
2022/06/25 08:31:29;;;;;;;6.12;2.17;;;;;;;30.36;31.16;100073.00;1714090;83;21060;-71
2022/06/25 08:33:56;;;;;;;4.62;2.25;;;;;;;30.52;30.72;100087.75;1714316;83;20993;-71
2022/06/25 08:36:22;;;;;;;4.85;2.12;;;;;;;30.40;30.55;100091.98;1714024;83;21184;-71
2022/06/25 08:38:49;;;;;;;6.53;2.00;;;;;;;30.57;30.49;100079.88;1718342;81;20995;-72
2022/06/25 08:41:16;;;;;;;5.67;2.20;;;;;;;30.98;30.10;100074.47;1679013;85;20980;-71
2022/06/25 08:43:42;;;;;;;2.47;2.08;;;;;;;31.27;29.28;100073.03;1678623;84;20972;-72
2022/06/25 08:46:09;;;;;;;3.47;1.90;;;;;;;31.51;29.71;100079.98;1670814;85;21035;-72
2022/06/25 08:48:37;;;;;;;4.22;2.30;;;;;;;31.71;28.46;100069.81;1678592;85;21159;-73
2022/06/25 08:51:08;;;;;;;;;;;;;;;31.73;28.43;100080.83;1681374;85;20999;-71
2022/06/25 08:53:35;;;;;;;13.25;2.50;;;;;;;31.31;29.25;100074.83;1678156;81;20187;-72
2022/06/25 08:56:01;;;;;;;3.98;2.83;;;;;;;31.09;30.04;100082.13;1682253;85;21055;-72
2022/06/25 08:58:28;;;;;;;5.62;2.90;;;;;;;31.14;29.76;100077.79;1682084;85;21004;-70
2022/06/25 09:00:55;;;;;;;6.28;2.20;;;;;;;31.19;29.66;100089.98;1682191;85;21114;-72
2022/06/25 09:03:22;;;;;;;4.37;2.40;;;;;;;31.19;29.06;100087.26;1681853;85;21036;-72
2022/06/25 09:05:50;;;;;;;5.17;2.20;;;;;;;31.07;29.77;100093.19;1682337;85;21067;-71
2022/06/25 09:08:17;;;;;;;9.98;2.60;;;;;;;31.14;29.37;100090.03;1651154;85;20991;-71
2022/06/25 09:10:46;;;;;;;5.78;2.42;;;;;;;31.15;29.28;100086.30;1659110;86;21534;-70
2022/06/25 09:13:13;;;;;;;3.77;1.92;;;;;;;31.18;29.43;100088.30;1659399;86;21708;-71
2022/06/25 09:15:45;;;;;;;2.20;1.62;;;;;;;31.44;28.99;100086.41;1657678;85;21585;-71
2022/06/25 09:18:16;;;;;;;3.50;1.92;;;;;;;31.54;28.67;100085.06;1657441;86;21519;-71
2022/06/25 09:21:02;;;;;;;3.27;1.90;;;;;;;31.59;28.79;100084.97;1657741;85;21019;-70
2022/06/25 09:23:32;;;;;;;9.78;2.05;;;;;;;31.73;28.79;100086.27;1651624;83;21023;-71
2022/06/25 09:26:03;;;;;;;6.90;2.20;;;;;;;31.97;28.43;100087.75;1628994;87;21117;-71
2022/06/25 09:28:32;;;;;;;4.10;2.40;;;;;;;32.05;28.22;100082.70;1629098;86;21560;-71
2022/06/25 09:30:59;;;;;;;6.53;2.10;;;;;;;31.93;28.39;100097.34;1629163;88;21564;-71
2022/06/25 09:33:26;;;;;;;7.97;2.08;;;;;;;31.43;29.01;100092.38;1629406;86;21042;-73
2022/06/25 09:35:54;;;;;;;4.20;1.95;;;;;;;31.04;29.89;100088.15;1629238;88;21076;-70
2022/06/25 09:38:21;;;;;;;4.85;1.90;;;;;;;30.94;29.19;100082.15;1612065;83;21057;-67
2022/06/25 09:40:56;;;;;;;9.20;2.42;;;;;;;31.07;29.91;100097.27;1635282;87;21034;-67
2022/06/25 09:43:37;;;;;;;4.00;2.08;;;;;;;31.13;29.16;100094.32;1635284;87;21036;-68
2022/06/25 09:46:07;;;;;;;3.30;2.10;;;;;;;31.21;28.84;100085.19;1635514;87;20925;-68
2022/06/25 09:48:35;;;;;;;3.20;1.83;;;;;;;31.49;28.79;100087.50;1635994;87;21550;-67
2022/06/25 09:51:11;;;;;;;4.60;1.90;;;;;;;31.62;28.55;100092.77;1635348;87;21143;-67
2022/06/25 09:53:54;;;;;;;5.72;2.00;;;;;;;31.63;28.60;100083.55;1659093;82;21449;-70
2022/06/25 09:56:24;;;;;;;6.40;2.00;;;;;;;31.85;28.42;100078.41;1660027;86;21446;-71
2022/06/25 09:58:50;;;;;;;2.40;2.10;;;;;;;32.04;27.82;100070.63;1660179;86;21434;-72
2022/06/25 10:01:19;;;;;;;3.75;2.20;;;;;;;32.04;28.14;100071.98;1660125;86;20989;-71
2022/06/25 10:03:46;;;;;;;5.05;2.08;;;;;;;31.49;29.43;100079.33;1660051;86;21871;-70
2022/06/25 10:06:14;;;;;;;7.37;2.30;;;;;;;31.32;29.62;100068.37;1660150;86;21510;-70
2022/06/25 10:08:47;;;;;;;2.80;2.17;;;;;;;31.54;29.19;100078.25;1687009;82;21046;-70
2022/06/25 10:11:13;;;;;;;7.83;2.12;;;;;;;31.60;29.26;100083.95;1708157;82;21038;-72
2022/06/25 10:13:41;;;;;;;2.47;1.80;;;;;;;31.61;28.48;100077.45;1698252;83;21006;-71
2022/06/25 10:16:09;;;;;;;5.85;2.00;;;;;;;31.81;27.73;100074.39;1691391;84;21816;-71
2022/06/25 10:18:36;;;;;;;5.83;2.05;;;;;;;32.04;28.22;100074.70;1691399;84;21303;-70
2022/06/25 10:21:03;;;;;;;2.10;1.90;;;;;;;31.95;28.18;100082.98;1691442;84;21034;-71
2022/06/25 10:23:30;;;;;;;6.05;2.10;;;;;;;31.84;27.55;100077.23;1695218;79;21045;-72
2022/06/25 10:25:58;;;;;;;4.17;2.05;;;;;;;31.97;27.95;100078.22;1689969;83;20989;-70
2022/06/25 10:28:28;;;;;;;3.72;1.90;;;;;;;32.16;27.33;100081.28;1685262;85;21493;-71
2022/06/25 10:30:58;;;;;;;3.47;1.92;;;;;;;32.39;27.03;100081.88;1685606;85;21580;-69
2022/06/25 10:33:29;;;;;;;4.37;2.17;;;;;;;32.34;27.09;100078.89;1685500;85;21073;-70
2022/06/25 10:35:58;;;;;;;3.65;2.00;;;;;;;32.07;27.71;100071.58;1685499;85;21001;-70
2022/06/25 10:38:26;;;;;;;11.55;2.12;;;;;;;31.83;28.14;100069.59;1703178;80;20894;-69
2022/06/25 10:43:50;;;;;;;2.80;1.90;;;;;;;31.23;28.96;100074.97;1700305;84;21504;-70
2022/06/25 10:46:37;;;;;;;3.58;2.00;;;;;;;31.08;28.75;100073.14;1700535;84;21460;-71
2022/06/25 10:49:18;;;;;;;5.65;2.05;;;;;;;30.93;29.35;100069.61;1670342;84;21020;-70
2022/06/25 10:51:50;;;;;;;5.65;2.20;;;;;;;30.86;29.02;100074.13;1700567;84;21028;-71
2022/06/25 10:54:29;;;;;;;5.53;1.95;;;;;;;30.86;28.78;100076.84;1712532;79;21085;-71
2022/06/25 10:56:58;;;;;;;4.30;2.20;;;;;;;31.03;29.13;100075.56;1720763;83;21027;-70
2022/06/25 10:59:48;;;;;;;4.03;1.95;;;;;;;31.48;28.88;100081.74;1720959;83;20979;-70
2022/06/25 11:02:23;;;;;;;5.62;2.40;;;;;;;31.36;28.58;100066.95;1721062;83;21007;-70
2022/06/25 11:04:53;;;;;;;5.62;2.20;;;;;;;31.18;28.72;100077.42;1720585;83;21038;-70
2022/06/25 11:07:24;;;;;;;3.42;1.90;;;;;;;30.83;28.95;100073.95;1720226;83;21504;-70
2022/06/25 11:09:58;;;;;;;6.83;2.40;;;;;;;30.64;29.89;100073.17;1711100;81;21001;-70
2022/06/25 11:12:27;;;;;;;5.00;2.08;;;;;;;30.84;29.26;100072.94;1699806;84;21054;-71
2022/06/25 11:15:03;;;;;;;4.62;1.90;;;;;;;30.96;28.87;100076.02;1691010;84;21007;-72
2022/06/25 11:17:30;;;;;;;8.55;2.30;;;;;;;31.02;29.20;100073.06;1691070;84;21479;-71
2022/06/25 11:20:07;;;;;;;7.92;2.33;;;;;;;30.82;28.58;100076.33;1676570;85;21214;-70
2022/06/25 11:22:56;;;;;;;7.00;2.10;;;;;;;30.69;29.09;100074.30;1676487;85;21041;-71
2022/06/25 11:30:53;;;;;;;6.35;2.02;;;;;;;31.07;27.82;100070.08;1661324;86;21057;-71
2022/06/25 11:33:20;;;;;;;5.62;1.80;;;;;;;30.80;27.49;100065.33;1661453;86;21069;-71
2022/06/25 11:35:49;;;;;;;5.37;2.00;;;;;;;30.62;27.25;100072.02;1661172;86;21026;-71
2022/06/25 11:38:17;;;;;;;2.70;2.00;;;;;;;30.54;27.22;100068.03;1666545;80;20990;-71
2022/06/25 11:40:44;;;;;;;5.40;2.20;;;;;;;30.74;28.15;100056.91;1677096;84;21014;-70
2022/06/25 11:43:15;;;;;;;2.33;2.02;;;;;;;31.07;28.27;100061.92;1676723;85;21012;-71
2022/06/25 11:45:55;;;;;;;2.40;2.00;;;;;;;31.25;27.29;100064.73;1654448;85;21112;-71
2022/06/25 11:48:29;;;;;;;4.00;1.90;;;;;;;31.24;26.56;100057.59;1676567;85;21130;-70
2022/06/25 11:50:59;;;;;;;3.05;1.95;;;;;;;31.32;27.57;100060.20;1677067;85;20992;-70
2022/06/25 11:53:25;;;;;;;3.52;2.05;;;;;;;31.48;27.39;100057.25;1691738;80;21222;-71
2022/06/25 11:55:59;;;;;;;6.35;2.20;;;;;;;31.54;27.56;100057.84;1659763;86;21003;-72
2022/06/25 11:58:28;;;;;;;3.55;2.45;;;;;;;31.40;28.66;100065.50;1659628;86;21195;-69